Time,TemperatureF,DewpointF,PressureIn,WindDirection,WindDirectionDegrees,WindSpeedMPH,WindSpeedGustMPH,Humidity,HourlyPrecipIn,Conditions,Clouds,dailyrainin,SoftwareType,DateUTC
2013-12-04 00:01:00,37.6,35.5,29.86,SE,130,1.0,1.0,92,0.00,,,0.00,Wunderground v.1.15,2013-12-04 05:01:00,
2013-12-04 00:03:00,37.6,35.5,29.86,SE,126,1.0,1.0,92,0.00,,,0.00,Wunderground v.1.15,2013-12-04 05:03:00,
2013-12-04 00:04:00,37.6,35.5,29.86,SE,126,1.0,1.0,92,0.00,,,0.00,Wunderground v.1.15,2013-12-04 05:04:00,
2013-12-04 00:08:00,37.6,35.5,29.85,SE,130,1.0,2.0,92,0.00,,,0.00,Wunderground v.1.15,2013-12-04 05:08:00,
2013-12-04 00:09:00,37.6,35.5,29.85,ESE,123,1.0,2.0,92,0.00,,,0.00,Wunderground v.1.15,2013-12-04 05:09:00,
2013-12-04 00:13:00,37.6,35.5,29.85,East,98,1.0,1.0,92,0.00,,,0.00,Wunderground v.1.15,2013-12-04 05:13:00,
2013-12-04 00:18:00,37.6,35.5,29.85,SE,138,0.0,1.0,92,0.00,,,0.00,Wunderground v.1.15,2013-12-04 05:18:00,
2013-12-04 00:24:00,37.6,35.5,29.85,ESE,122,0.0,1.0,92,0.00,,,0.00,Wunderground v.1.15,2013-12-04 05:24:00,
2013-12-04 00:30:00,37.6,35.5,29.85,SSE,147,0.0,0.0,92,0.00,,,0.00,Wunderground v.1.15,2013-12-04 05:30:00,
2013-12-04 00:36:00,37.6,35.5,29.85,ESE,121,0.0,0.0,92,0.00,,,0.00,Wunderground v.1.15,2013-12-04 05:36:00,
2013-12-04 00:42:00,37.7,35.6,29.85,ESE,119,0.0,4.0,92,0.00,,,0.00,Wunderground v.1.15,2013-12-04 05:42:00,
2013-12-04 00:48:00,37.7,35.6,29.85,ESE,123,0.0,4.0,92,0.00,,,0.00,Wunderground v.1.15,2013-12-04 05:48:00,
2013-12-04 00:54:00,37.7,35.6,29.84,SE,124,0.0,1.0,92,0.00,,,0.00,Wunderground v.1.15,2013-12-04 05:54:00,
2013-12-04 01:00:00,37.8,35.7,29.85,ESE,105,0.0,0.0,92,0.00,,,0.00,Wunderground v.1.15,2013-12-04 06:00:00,
2013-12-04 01:06:00,37.8,35.7,29.84,SE,130,0.0,2.0,92,0.00,,,0.00,Wunderground v.1.15,2013-12-04 06:06:00,
2013-12-04 01:12:00,37.9,35.8,29.84,ESE,117,1.0,1.0,92,0.00,,,0.00,Wunderground v.1.15,2013-12-04 06:12:00,
2013-12-04 01:17:00,38.0,35.9,29.84,ESE,114,0.0,1.0,92,0.00,,,0.00,Wunderground v.1.15,2013-12-04 06:17:00,
2013-12-04 01:23:00,38.1,36.0,29.84,SE,133,1.0,7.0,92,0.00,,,0.00,Wunderground v.1.15,2013-12-04 06:23:00,
2013-12-04 01:29:00,38.2,36.1,29.84,SE,142,1.0,7.0,92,0.00,,,0.00,Wunderground v.1.15,2013-12-04 06:29:00,
2013-12-04 01:34:00,38.3,36.2,29.83,SE,129,0.0,4.0,92,0.00,,,0.00,Wunderground v.1.15,2013-12-04 06:34:00,
2013-12-04 01:40:00,38.4,36.3,29.83,ESE,108,1.0,1.0,92,0.00,,,0.00,Wunderground v.1.15,2013-12-04 06:40:00,
2013-12-04 01:46:00,38.6,36.5,29.83,SE,144,1.0,5.0,92,0.00,,,0.00,Wunderground v.1.15,2013-12-04 06:46:00,
2013-12-04 01:52:00,38.7,36.6,29.83,East,86,1.0,3.0,92,0.00,,,0.00,Wunderground v.1.15,2013-12-04 06:52:00,
2013-12-04 01:58:00,38.8,36.7,29.82,SE,131,2.0,5.0,92,0.00,,,0.00,Wunderground v.1.15,2013-12-04 06:58:00,
2013-12-04 02:03:00,38.8,36.7,29.82,SE,128,3.0,4.0,92,0.00,,,0.00,Wunderground v.1.15,2013-12-04 07:03:00,
2013-12-04 02:09:00,38.9,36.8,29.82,SE,140,3.0,5.0,92,0.00,,,0.00,Wunderground v.1.15,2013-12-04 07:09:00,
2013-12-04 02:14:00,39.0,36.9,29.82,SE,143,3.0,7.0,92,0.00,,,0.00,Wunderground v.1.15,2013-12-04 07:14:00,
2013-12-04 02:20:00,39.0,36.9,29.82,SSE,160,3.0,3.0,92,0.00,,,0.00,Wunderground v.1.15,2013-12-04 07:20:00,
2013-12-04 02:25:00,39.0,36.9,29.82,SSE,157,2.0,4.0,92,0.00,,,0.00,Wunderground v.1.15,2013-12-04 07:25:00,
2013-12-04 02:31:00,39.1,37.0,29.82,ESE,122,1.0,3.0,92,0.00,,,0.00,Wunderground v.1.15,2013-12-04 07:31:00,
2013-12-04 02:37:00,39.1,37.0,29.82,SSE,157,2.0,5.0,92,0.00,,,0.00,Wunderground v.1.15,2013-12-04 07:37:00,
2013-12-04 02:42:00,39.1,37.0,29.83,SE,146,1.0,7.0,92,0.00,,,0.00,Wunderground v.1.15,2013-12-04 07:42:00,
2013-12-04 02:48:00,39.2,37.1,29.84,SSE,165,1.0,7.0,92,0.00,,,0.00,Wunderground v.1.15,2013-12-04 07:48:00,
2013-12-04 02:54:00,39.3,37.2,29.84,SE,137,0.0,1.0,92,0.00,,,0.00,Wunderground v.1.15,2013-12-04 07:54:00,
2013-12-04 03:00:00,39.3,37.2,29.85,SSE,151,0.0,0.0,92,0.00,,,0.00,Wunderground v.1.15,2013-12-04 08:00:00,
2013-12-04 03:06:00,39.3,37.2,29.85,South,172,0.0,0.0,92,0.00,,,0.00,Wunderground v.1.15,2013-12-04 08:06:00,
2013-12-04 03:11:00,39.3,37.2,29.85,ESE,121,0.0,0.0,92,0.00,,,0.00,Wunderground v.1.15,2013-12-04 08:11:00,
2013-12-04 03:17:00,39.2,37.1,29.85,SE,131,0.0,0.0,92,0.00,,,0.00,Wunderground v.1.15,2013-12-04 08:17:00,
2013-12-04 03:23:00,39.1,37.0,29.85,SE,143,0.0,0.0,92,0.00,,,0.00,Wunderground v.1.15,2013-12-04 08:23:00,
2013-12-04 03:28:00,39.0,36.9,29.85,SE,134,0.0,0.0,92,0.00,,,0.00,Wunderground v.1.15,2013-12-04 08:28:00,
2013-12-04 03:34:00,39.0,36.9,29.85,ESE,120,0.0,0.0,92,0.00,,,0.00,Wunderground v.1.15,2013-12-04 08:34:00,
2013-12-04 03:40:00,39.0,36.9,29.85,South,171,0.0,0.0,92,0.00,,,0.00,Wunderground v.1.15,2013-12-04 08:40:00,
2013-12-04 03:46:00,39.0,36.9,29.86,SSE,167,0.0,0.0,92,0.00,,,0.00,Wunderground v.1.15,2013-12-04 08:46:00,
2013-12-04 03:51:00,39.1,37.0,29.86,ESE,113,0.0,0.0,92,0.00,,,0.00,Wunderground v.1.15,2013-12-04 08:51:00,
2013-12-04 03:57:00,39.1,37.0,29.85,ESE,116,0.0,0.0,92,0.00,,,0.00,Wunderground v.1.15,2013-12-04 08:57:00,
2013-12-04 04:02:00,39.1,37.0,29.86,East,82,0.0,0.0,92,0.00,,,0.00,Wunderground v.1.15,2013-12-04 09:02:00,
2013-12-04 04:07:00,39.1,37.0,29.86,SE,130,0.0,0.0,92,0.00,,,0.00,Wunderground v.1.15,2013-12-04 09:07:00,
2013-12-04 04:13:00,39.2,37.1,29.86,SE,138,0.0,0.0,92,0.00,,,0.00,Wunderground v.1.15,2013-12-04 09:13:00,
2013-12-04 04:19:00,39.2,37.1,29.85,ESE,107,0.0,0.0,92,0.00,,,0.00,Wunderground v.1.15,2013-12-04 09:19:00,
2013-12-04 04:24:00,39.1,37.0,29.85,West,261,1.0,4.0,92,0.00,,,0.00,Wunderground v.1.15,2013-12-04 09:24:00,
2013-12-04 04:30:00,39.0,36.9,29.85,West,265,1.0,1.0,92,0.00,,,0.00,Wunderground v.1.15,2013-12-04 09:30:00,
2013-12-04 04:36:00,39.0,36.9,29.84,SSE,152,1.0,4.0,92,0.00,,,0.00,Wunderground v.1.15,2013-12-04 09:36:00,
2013-12-04 04:42:00,38.9,36.8,29.85,SSE,155,1.0,1.0,92,0.00,,,0.00,Wunderground v.1.15,2013-12-04 09:42:00,
2013-12-04 04:47:00,38.9,36.8,29.85,SSE,155,0.0,1.0,92,0.00,,,0.00,Wunderground v.1.15,2013-12-04 09:47:00,
2013-12-04 04:53:00,38.8,36.7,29.85,East,88,0.0,0.0,92,0.00,,,0.00,Wunderground v.1.15,2013-12-04 09:53:00,
2013-12-04 04:59:00,38.7,36.6,29.85,ESE,104,0.0,0.0,92,0.00,,,0.00,Wunderground v.1.15,2013-12-04 09:59:00,
2013-12-04 05:04:00,38.7,36.6,29.86,ESE,112,0.0,0.0,92,0.00,,,0.00,Wunderground v.1.15,2013-12-04 10:04:00,
2013-12-04 05:10:00,38.8,36.7,29.87,ESE,112,0.0,0.0,92,0.00,,,0.00,Wunderground v.1.15,2013-12-04 10:10:00,
2013-12-04 05:15:00,38.8,36.7,29.86,ESE,112,0.0,0.0,92,0.00,,,0.00,Wunderground v.1.15,2013-12-04 10:15:00,
2013-12-04 05:21:00,38.9,36.8,29.85,SE,131,0.0,0.0,92,0.00,,,0.00,Wunderground v.1.15,2013-12-04 10:21:00,
2013-12-04 05:27:00,39.0,36.9,29.85,SE,129,0.0,0.0,92,0.00,,,0.00,Wunderground v.1.15,2013-12-04 10:27:00,
2013-12-04 05:33:00,39.1,37.2,29.85,ESE,105,0.0,0.0,93,0.00,,,0.00,Wunderground v.1.15,2013-12-04 10:33:00,
2013-12-04 05:39:00,39.2,37.3,29.85,SE,125,0.0,4.0,93,0.00,,,0.00,Wunderground v.1.15,2013-12-04 10:39:00,
2013-12-04 05:44:00,39.3,37.4,29.84,ESE,123,0.0,0.0,93,0.00,,,0.00,Wunderground v.1.15,2013-12-04 10:44:00,
2013-12-04 05:50:00,39.4,37.3,29.84,SE,130,0.0,1.0,92,0.00,,,0.00,Wunderground v.1.15,2013-12-04 10:50:00,
2013-12-04 05:56:00,39.6,37.5,29.84,SE,137,1.0,4.0,92,0.00,,,0.00,Wunderground v.1.15,2013-12-04 10:56:00,
2013-12-04 06:02:00,39.6,37.5,29.85,SE,143,1.0,1.0,92,0.00,,,0.00,Wunderground v.1.15,2013-12-04 11:02:00,
2013-12-04 06:08:00,39.7,37.8,29.85,SE,140,0.0,3.0,93,0.00,,,0.00,Wunderground v.1.15,2013-12-04 11:08:00,
2013-12-04 06:13:00,39.7,37.8,29.85,ESE,123,0.0,3.0,93,0.00,,,0.00,Wunderground v.1.15,2013-12-04 11:13:00,
2013-12-04 06:19:00,39.7,37.8,29.85,SE,143,0.0,3.0,93,0.00,,,0.00,Wunderground v.1.15,2013-12-04 11:19:00,
2013-12-04 06:25:00,39.7,37.8,29.85,South,186,1.0,4.0,93,0.00,,,0.00,Wunderground v.1.15,2013-12-04 11:25:00,
2013-12-04 06:31:00,39.7,37.8,29.86,SE,128,1.0,1.0,93,0.00,,,0.00,Wunderground v.1.15,2013-12-04 11:31:00,
2013-12-04 06:36:00,39.7,37.8,29.86,ESE,121,0.0,5.0,93,0.00,,,0.00,Wunderground v.1.15,2013-12-04 11:36:00,
2013-12-04 06:42:00,39.7,37.8,29.86,SE,132,0.0,1.0,93,0.00,,,0.00,Wunderground v.1.15,2013-12-04 11:42:00,
2013-12-04 06:48:00,39.7,37.8,29.86,ESE,115,1.0,4.0,93,0.00,,,0.00,Wunderground v.1.15,2013-12-04 11:48:00,
2013-12-04 06:53:00,39.7,37.6,29.86,SSE,155,1.0,4.0,92,0.00,,,0.00,Wunderground v.1.15,2013-12-04 11:53:00,
2013-12-04 06:59:00,39.7,37.6,29.87,SE,138,2.0,4.0,92,0.00,,,0.00,Wunderground v.1.15,2013-12-04 11:59:00,
2013-12-04 07:04:00,39.7,37.6,29.86,East,98,2.0,4.0,92,0.00,,,0.00,Wunderground v.1.15,2013-12-04 12:04:00,
2013-12-04 07:10:00,39.7,37.8,29.86,ESE,122,3.0,4.0,93,0.00,,,0.00,Wunderground v.1.15,2013-12-04 12:10:00,
2013-12-04 07:16:00,39.7,37.8,29.85,SE,128,5.0,7.0,93,0.00,,,0.00,Wunderground v.1.15,2013-12-04 12:16:00,
2013-12-04 07:22:00,39.7,37.8,29.86,SE,145,4.0,5.0,93,0.00,,,0.00,Wunderground v.1.15,2013-12-04 12:22:00,
2013-12-04 07:27:00,39.6,37.5,29.86,ESE,114,3.0,5.0,92,0.00,,,0.00,Wunderground v.1.15,2013-12-04 12:27:00,
2013-12-04 07:33:00,39.6,37.5,29.86,SE,138,2.0,4.0,92,0.00,,,0.00,Wunderground v.1.15,2013-12-04 12:33:00,
2013-12-04 07:39:00,39.5,37.4,29.86,SE,135,2.0,4.0,92,0.00,,,0.00,Wunderground v.1.15,2013-12-04 12:39:00,
2013-12-04 07:44:00,39.6,37.5,29.86,South,187,1.0,3.0,92,0.00,,,0.00,Wunderground v.1.15,2013-12-04 12:44:00,
2013-12-04 07:50:00,39.6,37.7,29.87,SSE,150,0.0,0.0,93,0.00,,,0.00,Wunderground v.1.15,2013-12-04 12:50:00,
2013-12-04 07:56:00,39.7,37.8,29.87,ESE,117,0.0,0.0,93,0.00,,,0.00,Wunderground v.1.15,2013-12-04 12:56:00,
2013-12-04 08:02:00,39.7,37.8,29.87,SE,146,0.0,0.0,93,0.00,,,0.00,Wunderground v.1.15,2013-12-04 13:02:00,
2013-12-04 08:08:00,39.8,37.9,29.87,SSE,164,0.0,0.0,93,0.00,,,0.00,Wunderground v.1.15,2013-12-04 13:08:00,
2013-12-04 08:14:00,39.8,37.9,29.87,SE,137,1.0,4.0,93,0.00,,,0.00,Wunderground v.1.15,2013-12-04 13:14:00,
2013-12-04 08:20:00,39.9,38.0,29.87,ESE,113,1.0,1.0,93,0.00,,,0.00,Wunderground v.1.15,2013-12-04 13:20:00,
2013-12-04 08:26:00,40.0,38.1,29.87,SE,140,1.0,1.0,93,0.00,,,0.00,Wunderground v.1.15,2013-12-04 13:26:00,
2013-12-04 08:32:00,40.1,38.2,29.87,SE,140,0.0,0.0,93,0.00,,,0.00,Wunderground v.1.15,2013-12-04 13:32:00,
2013-12-04 08:38:00,40.2,38.3,29.87,SE,135,0.0,0.0,93,0.00,,,0.00,Wunderground v.1.15,2013-12-04 13:38:00,
2013-12-04 08:43:00,40.3,38.4,29.87,SE,128,0.0,3.0,93,0.00,,,0.00,Wunderground v.1.15,2013-12-04 13:43:00,
2013-12-04 08:49:00,40.5,38.6,29.87,ESE,119,1.0,4.0,93,0.00,,,0.00,Wunderground v.1.15,2013-12-04 13:49:00,
2013-12-04 08:55:00,40.7,38.8,29.88,SE,132,2.0,5.0,93,0.00,,,0.00,Wunderground v.1.15,2013-12-04 13:55:00,
2013-12-04 09:00:00,40.8,38.9,29.88,ESE,121,2.0,2.0,93,0.00,,,0.00,Wunderground v.1.15,2013-12-04 14:00:00,
2013-12-04 09:05:00,40.9,39.0,29.88,SE,128,2.0,3.0,93,0.00,,,0.00,Wunderground v.1.15,2013-12-04 14:05:00,
2013-12-04 09:10:00,41.1,39.2,29.88,SE,140,3.0,3.0,93,0.00,,,0.00,Wunderground v.1.15,2013-12-04 14:10:00,
2013-12-04 09:16:00,41.2,39.3,29.87,SE,131,3.0,4.0,93,0.00,,,0.00,Wunderground v.1.15,2013-12-04 14:16:00,
2013-12-04 09:21:00,41.3,39.4,29.88,SE,126,2.0,2.0,93,0.00,,,0.00,Wunderground v.1.15,2013-12-04 14:21:00,
2013-12-04 09:26:00,41.5,39.6,29.88,East,97,1.0,2.0,93,0.00,,,0.00,Wunderground v.1.15,2013-12-04 14:26:00,
2013-12-04 09:32:00,41.6,39.7,29.87,SE,124,2.0,4.0,93,0.00,,,0.00,Wunderground v.1.15,2013-12-04 14:32:00,
2013-12-04 09:38:00,41.8,39.9,29.87,SE,127,2.0,4.0,93,0.00,,,0.00,Wunderground v.1.15,2013-12-04 14:38:00,
2013-12-04 09:43:00,41.9,40.0,29.87,SE,133,1.0,6.0,93,0.00,,,0.00,Wunderground v.1.15,2013-12-04 14:43:00,
2013-12-04 09:49:00,42.0,40.1,29.86,SE,134,2.0,6.0,93,0.00,,,0.00,Wunderground v.1.15,2013-12-04 14:49:00,
2013-12-04 09:55:00,42.3,40.4,29.86,SE,127,3.0,4.0,93,0.00,,,0.00,Wunderground v.1.15,2013-12-04 14:55:00,
2013-12-04 10:00:00,42.5,40.6,29.86,SE,136,4.0,4.0,93,0.00,,,0.00,Wunderground v.1.15,2013-12-04 15:00:00,
2013-12-04 10:06:00,42.7,40.8,29.86,SE,141,3.0,5.0,93,0.00,,,0.00,Wunderground v.1.15,2013-12-04 15:06:00,
2013-12-04 10:12:00,42.9,41.0,29.86,SE,133,3.0,4.0,93,0.00,,,0.00,Wunderground v.1.15,2013-12-04 15:12:00,
2013-12-04 10:17:00,43.1,41.2,29.86,SE,135,2.0,4.0,93,0.00,,,0.00,Wunderground v.1.15,2013-12-04 15:17:00,
2013-12-04 10:23:00,43.3,41.1,29.86,SE,134,2.0,3.0,92,0.00,,,0.00,Wunderground v.1.15,2013-12-04 15:23:00,
2013-12-04 10:28:00,43.5,41.6,29.87,SSE,161,1.0,4.0,93,0.00,,,0.00,Wunderground v.1.15,2013-12-04 15:28:00,
2013-12-04 10:34:00,43.7,41.5,29.87,ESE,119,1.0,3.0,92,0.00,,,0.00,Wunderground v.1.15,2013-12-04 15:34:00,
2013-12-04 10:40:00,43.9,41.7,29.87,ESE,107,1.0,2.0,92,0.00,,,0.00,Wunderground v.1.15,2013-12-04 15:40:00,
2013-12-04 10:46:00,44.1,41.9,29.86,SE,132,1.0,2.0,92,0.00,,,0.00,Wunderground v.1.15,2013-12-04 15:46:00,
2013-12-04 10:51:00,44.3,42.1,29.86,East,95,2.0,5.0,92,0.00,,,0.00,Wunderground v.1.15,2013-12-04 15:51:00,
2013-12-04 10:57:00,44.5,42.3,29.85,SE,142,3.0,5.0,92,0.00,,,0.00,Wunderground v.1.15,2013-12-04 15:57:00,
2013-12-04 11:03:00,44.7,42.5,29.85,SE,130,1.0,5.0,92,0.00,,,0.00,Wunderground v.1.15,2013-12-04 16:03:00,
2013-12-04 11:09:00,45.1,42.9,29.85,SE,129,1.0,5.0,92,0.00,,,0.00,Wunderground v.1.15,2013-12-04 16:09:00,
2013-12-04 11:15:00,45.4,43.2,29.84,SSE,168,1.0,4.0,92,0.00,,,0.00,Wunderground v.1.15,2013-12-04 16:15:00,
2013-12-04 11:21:00,45.7,43.5,29.84,East,98,0.0,0.0,92,0.00,,,0.00,Wunderground v.1.15,2013-12-04 16:21:00,
2013-12-04 11:27:00,46.1,43.6,29.84,ESE,117,0.0,4.0,91,0.00,,,0.00,Wunderground v.1.15,2013-12-04 16:27:00,
2013-12-04 11:33:00,46.3,43.8,29.83,ESE,117,1.0,6.0,91,0.00,,,0.00,Wunderground v.1.15,2013-12-04 16:33:00,
2013-12-04 11:39:00,46.6,44.1,29.83,SE,144,1.0,6.0,91,0.00,,,0.00,Wunderground v.1.15,2013-12-04 16:39:00,
2013-12-04 11:44:00,46.7,44.2,29.82,SE,128,1.0,3.0,91,0.00,,,0.00,Wunderground v.1.15,2013-12-04 16:44:00,
2013-12-04 11:50:00,47.0,44.5,29.81,ESE,116,1.0,1.0,91,0.00,,,0.00,Wunderground v.1.15,2013-12-04 16:50:00,
2013-12-04 11:56:00,47.2,44.7,29.81,East,100,3.0,9.0,91,0.00,,,0.00,Wunderground v.1.15,2013-12-04 16:56:00,
2013-12-04 12:01:00,47.4,44.9,29.81,SE,134,3.0,7.0,91,0.00,,,0.00,Wunderground v.1.15,2013-12-04 17:01:00,
2013-12-04 12:07:00,47.6,44.8,29.80,SE,136,3.0,7.0,90,0.00,,,0.00,Wunderground v.1.15,2013-12-04 17:07:00,
2013-12-04 12:12:00,47.8,45.0,29.80,East,88,4.0,7.0,90,0.00,,,0.00,Wunderground v.1.15,2013-12-04 17:12:00,
2013-12-04 12:18:00,48.0,45.2,29.79,ESE,122,4.0,7.0,90,0.00,,,0.00,Wunderground v.1.15,2013-12-04 17:18:00,
2013-12-04 12:24:00,48.2,45.4,29.79,SE,139,4.0,7.0,90,0.00,,,0.00,Wunderground v.1.15,2013-12-04 17:24:00,
2013-12-04 12:29:00,48.3,45.2,29.79,East,88,5.0,7.0,89,0.00,,,0.00,Wunderground v.1.15,2013-12-04 17:29:00,
2013-12-04 12:35:00,48.4,45.3,29.79,SSE,162,4.0,4.0,89,0.00,,,0.00,Wunderground v.1.15,2013-12-04 17:35:00,
2013-12-04 12:41:00,48.4,45.3,29.79,ESE,121,3.0,3.0,89,0.00,,,0.00,Wunderground v.1.15,2013-12-04 17:41:00,
2013-12-04 12:47:00,48.5,45.4,29.78,East,94,2.0,5.0,89,0.00,,,0.00,Wunderground v.1.15,2013-12-04 17:47:00,
2013-12-04 12:53:00,48.5,45.4,29.77,ESE,120,3.0,5.0,89,0.00,,,0.00,Wunderground v.1.15,2013-12-04 17:53:00,
2013-12-04 12:58:00,48.7,45.6,29.77,SSE,157,3.0,5.0,89,0.00,,,0.00,Wunderground v.1.15,2013-12-04 17:58:00,
2013-12-04 13:04:00,48.8,45.7,29.77,SSE,150,3.0,5.0,89,0.00,,,0.00,Wunderground v.1.15,2013-12-04 18:04:00,
2013-12-04 13:10:00,49.0,45.9,29.77,SE,132,3.0,3.0,89,0.00,,,0.00,Wunderground v.1.15,2013-12-04 18:10:00,
2013-12-04 13:16:00,49.1,46.0,29.77,SE,126,3.0,5.0,89,0.00,,,0.00,Wunderground v.1.15,2013-12-04 18:16:00,
2013-12-04 13:22:00,49.2,46.1,29.77,SE,133,3.0,4.0,89,0.00,,,0.00,Wunderground v.1.15,2013-12-04 18:22:00,
2013-12-04 13:27:00,49.3,46.2,29.77,East,94,2.0,6.0,89,0.00,,,0.00,Wunderground v.1.15,2013-12-04 18:27:00,
2013-12-04 13:33:00,49.5,46.4,29.77,SE,146,2.0,7.0,89,0.00,,,0.00,Wunderground v.1.15,2013-12-04 18:33:00,
2013-12-04 13:39:00,49.6,46.5,29.77,SE,132,3.0,7.0,89,0.00,,,0.00,Wunderground v.1.15,2013-12-04 18:39:00,
2013-12-04 13:45:00,49.7,46.6,29.76,SE,142,3.0,5.0,89,0.00,,,0.00,Wunderground v.1.15,2013-12-04 18:45:00,
2013-12-04 13:51:00,49.7,46.6,29.77,ESE,120,3.0,3.0,89,0.00,,,0.00,Wunderground v.1.15,2013-12-04 18:51:00,
2013-12-04 13:56:00,49.9,46.8,29.77,SSW,202,2.0,3.0,89,0.00,,,0.00,Wunderground v.1.15,2013-12-04 18:56:00,
2013-12-04 14:02:00,50.0,46.9,29.77,SSE,156,1.0,4.0,89,0.00,,,0.00,Wunderground v.1.15,2013-12-04 19:02:00,
2013-12-04 14:08:00,50.2,47.1,29.77,SSE,151,1.0,7.0,89,0.00,,,0.00,Wunderground v.1.15,2013-12-04 19:08:00,
2013-12-04 14:14:00,50.3,47.2,29.76,South,180,3.0,4.0,89,0.00,,,0.00,Wunderground v.1.15,2013-12-04 19:14:00,
2013-12-04 14:20:00,50.4,47.3,29.76,ESE,109,3.0,7.0,89,0.00,,,0.00,Wunderground v.1.15,2013-12-04 19:20:00,
2013-12-04 14:26:00,50.4,47.3,29.76,SE,140,4.0,8.0,89,0.00,,,0.00,Wunderground v.1.15,2013-12-04 19:26:00,
2013-12-04 14:32:00,50.4,47.3,29.75,ESE,119,4.0,4.0,89,0.00,,,0.00,Wunderground v.1.15,2013-12-04 19:32:00,
2013-12-04 14:37:00,50.5,47.4,29.75,East,96,4.0,8.0,89,0.00,,,0.00,Wunderground v.1.15,2013-12-04 19:37:00,
2013-12-04 14:43:00,50.5,47.4,29.75,South,180,3.0,8.0,89,0.00,,,0.00,Wunderground v.1.15,2013-12-04 19:43:00,
2013-12-04 14:49:00,50.6,47.5,29.75,SE,134,3.0,8.0,89,0.00,,,0.00,Wunderground v.1.15,2013-12-04 19:49:00,
2013-12-04 14:55:00,50.6,47.5,29.75,SSE,151,3.0,6.0,89,0.00,,,0.00,Wunderground v.1.15,2013-12-04 19:55:00,
2013-12-04 15:00:00,50.7,47.6,29.75,SSE,167,4.0,4.0,89,0.00,,,0.00,Wunderground v.1.15,2013-12-04 20:00:00,
2013-12-04 15:06:00,50.7,47.6,29.74,SSE,147,4.0,7.0,89,0.00,,,0.00,Wunderground v.1.15,2013-12-04 20:06:00,
2013-12-04 15:11:00,50.8,47.7,29.74,SE,128,3.0,4.0,89,0.00,,,0.00,Wunderground v.1.15,2013-12-04 20:11:00,
2013-12-04 15:17:00,50.8,47.7,29.74,SE,132,3.0,9.0,89,0.00,,,0.00,Wunderground v.1.15,2013-12-04 20:17:00,
2013-12-04 15:23:00,50.8,47.7,29.74,SE,124,4.0,9.0,89,0.00,,,0.00,Wunderground v.1.15,2013-12-04 20:23:00,
2013-12-04 15:29:00,50.9,47.8,29.74,SSW,193,4.0,9.0,89,0.00,,,0.00,Wunderground v.1.15,2013-12-04 20:29:00,
2013-12-04 15:35:00,51.0,47.9,29.74,SSE,157,4.0,9.0,89,0.00,,,0.00,Wunderground v.1.15,2013-12-04 20:35:00,
2013-12-04 15:40:00,51.0,47.9,29.73,SE,125,4.0,6.0,89,0.00,,,0.00,Wunderground v.1.15,2013-12-04 20:40:00,
2013-12-04 15:46:00,51.1,48.0,29.73,East,89,4.0,7.0,89,0.00,,,0.00,Wunderground v.1.15,2013-12-04 20:46:00,
2013-12-04 15:52:00,51.1,48.0,29.72,ESE,107,3.0,6.0,89,0.00,,,0.00,Wunderground v.1.15,2013-12-04 20:52:00,
2013-12-04 15:58:00,51.1,48.0,29.71,East,86,4.0,7.0,89,0.00,,,0.00,Wunderground v.1.15,2013-12-04 20:58:00,
2013-12-04 16:04:00,51.2,48.1,29.71,SE,125,5.0,9.0,89,0.00,,,0.00,Wunderground v.1.15,2013-12-04 21:04:00,
2013-12-04 16:09:00,51.2,48.1,29.71,SE,135,6.0,9.0,89,0.00,,,0.00,Wunderground v.1.15,2013-12-04 21:09:00,
2013-12-04 16:15:00,51.1,48.0,29.71,SE,135,5.0,7.0,89,0.00,,,0.00,Wunderground v.1.15,2013-12-04 21:15:00,
2013-12-04 16:21:00,51.0,47.9,29.71,ESE,105,4.0,9.0,89,0.00,,,0.00,Wunderground v.1.15,2013-12-04 21:21:00,
2013-12-04 16:27:00,51.0,47.9,29.71,ESE,119,4.0,10.0,89,0.00,,,0.00,Wunderground v.1.15,2013-12-04 21:27:00,
2013-12-04 16:33:00,51.1,48.0,29.71,SE,136,5.0,7.0,89,0.00,,,0.00,Wunderground v.1.15,2013-12-04 21:33:00,
2013-12-04 16:39:00,51.0,47.9,29.70,SSE,151,5.0,8.0,89,0.00,,,0.00,Wunderground v.1.15,2013-12-04 21:39:00,
2013-12-04 16:45:00,51.0,47.9,29.70,SE,131,4.0,8.0,89,0.00,,,0.00,Wunderground v.1.15,2013-12-04 21:45:00,
2013-12-04 16:51:00,51.0,47.9,29.70,ESE,103,3.0,5.0,89,0.00,,,0.00,Wunderground v.1.15,2013-12-04 21:51:00,
2013-12-04 16:57:00,51.0,47.9,29.70,SE,131,5.0,7.0,89,0.00,,,0.00,Wunderground v.1.15,2013-12-04 21:57:00,
2013-12-04 17:02:00,51.0,47.9,29.70,SE,139,5.0,9.0,89,0.00,,,0.00,Wunderground v.1.15,2013-12-04 22:02:00,
2013-12-04 17:08:00,51.1,48.0,29.69,SSE,149,6.0,10.0,89,0.00,,,0.00,Wunderground v.1.15,2013-12-04 22:08:00,
2013-12-04 17:14:00,51.2,48.1,29.69,SW,220,5.0,8.0,89,0.00,,,0.00,Wunderground v.1.15,2013-12-04 22:14:00,
2013-12-04 17:19:00,51.2,48.1,29.69,ESE,123,5.0,8.0,89,0.00,,,0.00,Wunderground v.1.15,2013-12-04 22:19:00,
2013-12-04 17:25:00,51.2,48.1,29.68,SE,137,5.0,10.0,89,0.00,,,0.00,Wunderground v.1.15,2013-12-04 22:25:00,
2013-12-04 17:31:00,51.3,48.2,29.68,SE,133,6.0,6.0,89,0.00,,,0.00,Wunderground v.1.15,2013-12-04 22:31:00,
2013-12-04 17:37:00,51.3,48.2,29.67,East,79,5.0,10.0,89,0.00,,,0.00,Wunderground v.1.15,2013-12-04 22:37:00,
2013-12-04 17:43:00,51.1,48.3,29.67,ESE,117,5.0,8.0,90,0.00,,,0.00,Wunderground v.1.15,2013-12-04 22:43:00,
2013-12-04 17:48:00,51.0,48.2,29.67,ENE,68,5.0,8.0,90,0.00,,,0.00,Wunderground v.1.15,2013-12-04 22:48:00,
2013-12-04 17:54:00,50.8,48.0,29.68,South,183,5.0,6.0,90,0.00,,,0.00,Wunderground v.1.15,2013-12-04 22:54:00,
2013-12-04 18:00:00,50.8,48.3,29.68,SE,146,4.0,5.0,91,0.00,,,0.00,Wunderground v.1.15,2013-12-04 23:00:00,
2013-12-04 18:06:00,50.6,48.1,29.67,SE,128,4.0,6.0,91,0.00,,,0.00,Wunderground v.1.15,2013-12-04 23:06:00,
2013-12-04 18:12:00,50.6,48.1,29.67,SSE,155,5.0,5.0,91,0.00,,,0.00,Wunderground v.1.15,2013-12-04 23:12:00,
2013-12-04 18:18:00,50.6,48.1,29.67,ESE,123,6.0,9.0,91,0.00,,,0.00,Wunderground v.1.15,2013-12-04 23:18:00,
2013-12-04 18:24:00,50.6,48.1,29.67,SSE,152,5.0,6.0,91,0.00,,,0.00,Wunderground v.1.15,2013-12-04 23:24:00,
2013-12-04 18:29:00,50.7,48.2,29.66,SE,130,5.0,10.0,91,0.00,,,0.00,Wunderground v.1.15,2013-12-04 23:29:00,
2013-12-04 18:34:00,50.7,48.2,29.67,SE,127,5.0,7.0,91,0.00,,,0.00,Wunderground v.1.15,2013-12-04 23:34:00,
2013-12-04 18:40:00,50.8,48.3,29.67,East,94,4.0,7.0,91,0.00,,,0.00,Wunderground v.1.15,2013-12-04 23:40:00,
2013-12-04 18:46:00,50.7,48.2,29.67,East,91,5.0,8.0,91,0.00,,,0.00,Wunderground v.1.15,2013-12-04 23:46:00,
2013-12-04 18:52:00,50.7,48.2,29.67,ESE,114,5.0,8.0,91,0.00,,,0.00,Wunderground v.1.15,2013-12-04 23:52:00,
2013-12-04 18:57:00,50.7,48.2,29.67,ESE,119,5.0,8.0,91,0.00,,,0.00,Wunderground v.1.15,2013-12-04 23:57:00,
2013-12-04 19:02:00,50.7,48.2,29.67,SSE,150,4.0,5.0,91,0.00,,,0.00,Wunderground v.1.15,2013-12-05 00:02:00,
2013-12-04 19:08:00,50.6,48.1,29.67,SE,141,3.0,9.0,91,0.00,,,0.00,Wunderground v.1.15,2013-12-05 00:08:00,
2013-12-04 19:14:00,50.6,48.1,29.67,South,181,2.0,4.0,91,0.00,,,0.00,Wunderground v.1.15,2013-12-05 00:14:00,
2013-12-04 19:20:00,50.6,48.1,29.66,SE,145,3.0,3.0,91,0.00,,,0.00,Wunderground v.1.15,2013-12-05 00:20:00,
2013-12-04 19:26:00,50.6,48.1,29.66,South,173,3.0,8.0,91,0.00,,,0.00,Wunderground v.1.15,2013-12-05 00:26:00,
2013-12-04 19:31:00,50.7,48.5,29.66,East,92,2.0,2.0,92,0.00,,,0.00,Wunderground v.1.15,2013-12-05 00:31:00,
2013-12-04 19:36:00,50.7,48.5,29.66,SSE,148,2.0,4.0,92,0.00,,,0.00,Wunderground v.1.15,2013-12-05 00:36:00,
2013-12-04 19:42:00,50.8,48.6,29.65,SSE,149,2.0,6.0,92,0.00,,,0.00,Wunderground v.1.15,2013-12-05 00:42:00,
2013-12-04 19:48:00,50.9,48.7,29.65,SE,128,3.0,8.0,92,0.00,,,0.00,Wunderground v.1.15,2013-12-05 00:48:00,
2013-12-04 19:54:00,51.1,48.6,29.65,South,177,3.0,5.0,91,0.00,,,0.00,Wunderground v.1.15,2013-12-05 00:54:00,
2013-12-04 20:00:00,51.1,48.6,29.65,South,171,3.0,3.0,91,0.00,,,0.00,Wunderground v.1.15,2013-12-05 01:00:00,
2013-12-04 20:06:00,51.3,48.8,29.65,SW,215,4.0,10.0,91,0.00,,,0.00,Wunderground v.1.15,2013-12-05 01:06:00,
2013-12-04 20:12:00,51.4,48.9,29.65,SSE,155,3.0,4.0,91,0.00,,,0.00,Wunderground v.1.15,2013-12-05 01:12:00,
2013-12-04 20:18:00,51.4,48.9,29.65,South,180,3.0,6.0,91,0.00,,,0.00,Wunderground v.1.15,2013-12-05 01:18:00,
2013-12-04 20:23:00,51.5,49.0,29.65,SSW,205,3.0,5.0,91,0.00,,,0.00,Wunderground v.1.15,2013-12-05 01:23:00,
2013-12-04 20:29:00,51.5,49.0,29.64,SE,130,2.0,6.0,91,0.00,,,0.00,Wunderground v.1.15,2013-12-05 01:29:00,
2013-12-04 20:34:00,51.5,49.0,29.65,SSE,164,2.0,3.0,91,0.00,,,0.00,Wunderground v.1.15,2013-12-05 01:34:00,
2013-12-04 20:40:00,51.5,49.0,29.64,SE,138,2.0,7.0,91,0.00,,,0.00,Wunderground v.1.15,2013-12-05 01:40:00,
2013-12-04 20:46:00,51.4,48.9,29.64,ESE,115,2.0,7.0,91,0.00,,,0.00,Wunderground v.1.15,2013-12-05 01:46:00,
2013-12-04 20:51:00,51.4,48.9,29.64,SSW,209,2.0,5.0,91,0.00,,,0.00,Wunderground v.1.15,2013-12-05 01:51:00,
2013-12-04 20:57:00,51.4,48.9,29.63,SSE,167,2.0,6.0,91,0.00,,,0.00,Wunderground v.1.15,2013-12-05 01:57:00,
2013-12-04 21:03:00,51.4,48.9,29.63,SSE,155,2.0,7.0,91,0.00,,,0.00,Wunderground v.1.15,2013-12-05 02:03:00,
2013-12-04 21:08:00,51.4,48.9,29.63,South,188,3.0,8.0,91,0.00,,,0.00,Wunderground v.1.15,2013-12-05 02:08:00,
2013-12-04 21:14:00,51.5,49.0,29.63,SE,130,3.0,7.0,91,0.00,,,0.00,Wunderground v.1.15,2013-12-05 02:14:00,
2013-12-04 21:20:00,51.6,49.1,29.63,SE,130,2.0,2.0,91,0.00,,,0.00,Wunderground v.1.15,2013-12-05 02:20:00,
2013-12-04 21:26:00,51.6,49.1,29.63,SE,141,2.0,5.0,91,0.00,,,0.00,Wunderground v.1.15,2013-12-05 02:26:00,
2013-12-04 21:32:00,51.7,49.2,29.63,South,170,2.0,6.0,91,0.00,,,0.00,Wunderground v.1.15,2013-12-05 02:32:00,
2013-12-04 21:37:00,51.7,49.2,29.63,SE,140,2.0,6.0,91,0.00,,,0.00,Wunderground v.1.15,2013-12-05 02:37:00,
2013-12-04 21:43:00,51.8,49.3,29.62,SSE,150,2.0,4.0,91,0.00,,,0.00,Wunderground v.1.15,2013-12-05 02:43:00,
2013-12-04 21:49:00,51.8,49.3,29.62,SE,140,1.0,4.0,91,0.00,,,0.00,Wunderground v.1.15,2013-12-05 02:49:00,
2013-12-04 21:55:00,51.9,49.4,29.62,ESE,110,1.0,6.0,91,0.00,,,0.00,Wunderground v.1.15,2013-12-05 02:55:00,
2013-12-04 22:00:00,51.9,49.4,29.61,East,96,1.0,3.0,91,0.00,,,0.00,Wunderground v.1.15,2013-12-05 03:00:00,
2013-12-04 22:06:00,52.1,49.6,29.61,SSE,157,2.0,4.0,91,0.00,,,0.00,Wunderground v.1.15,2013-12-05 03:06:00,
2013-12-04 22:12:00,52.3,49.8,29.62,SE,137,2.0,3.0,91,0.00,,,0.00,Wunderground v.1.15,2013-12-05 03:12:00,
2013-12-04 22:18:00,52.6,50.0,29.61,SE,132,2.0,7.0,91,0.00,,,0.00,Wunderground v.1.15,2013-12-05 03:18:00,
2013-12-04 22:24:00,53.0,50.7,29.61,South,181,2.0,3.0,92,0.00,,,0.00,Wunderground v.1.15,2013-12-05 03:24:00,
2013-12-04 22:29:00,53.3,50.7,29.60,SSE,148,2.0,4.0,91,0.00,,,0.00,Wunderground v.1.15,2013-12-05 03:29:00,
2013-12-04 22:35:00,53.6,51.0,29.60,SSW,204,2.0,7.0,91,0.00,,,0.00,Wunderground v.1.15,2013-12-05 03:35:00,
2013-12-04 22:41:00,54.0,51.4,29.61,SE,136,2.0,5.0,91,0.00,,,0.00,Wunderground v.1.15,2013-12-05 03:41:00,
2013-12-04 22:47:00,54.3,51.7,29.60,SE,131,2.0,5.0,91,0.00,,,0.00,Wunderground v.1.15,2013-12-05 03:47:00,
2013-12-04 22:53:00,54.6,52.0,29.60,ESE,121,3.0,5.0,91,0.00,,,0.00,Wunderground v.1.15,2013-12-05 03:53:00,
2013-12-04 22:58:00,55.1,52.5,29.60,SSE,150,3.0,10.0,91,0.00,,,0.00,Wunderground v.1.15,2013-12-05 03:58:00,
2013-12-04 23:04:00,55.4,52.8,29.60,SSE,149,3.0,9.0,91,0.00,,,0.00,Wunderground v.1.15,2013-12-05 04:04:00,
2013-12-04 23:10:00,55.7,52.8,29.59,SE,144,3.0,3.0,90,0.00,,,0.00,Wunderground v.1.15,2013-12-05 04:10:00,
2013-12-04 23:16:00,55.9,53.0,29.59,SSE,158,4.0,6.0,90,0.00,,,0.00,Wunderground v.1.15,2013-12-05 04:16:00,
2013-12-04 23:22:00,56.1,53.2,29.59,SSE,147,4.0,6.0,90,0.00,,,0.00,Wunderground v.1.15,2013-12-05 04:22:00,
2013-12-04 23:27:00,56.2,53.3,29.59,South,186,2.0,7.0,90,0.00,,,0.00,Wunderground v.1.15,2013-12-05 04:27:00,
2013-12-04 23:33:00,56.3,53.4,29.59,SSE,157,3.0,6.0,90,0.00,,,0.00,Wunderground v.1.15,2013-12-05 04:33:00,
2013-12-04 23:39:00,56.5,53.3,29.58,SE,138,4.0,10.0,89,0.00,,,0.00,Wunderground v.1.15,2013-12-05 04:39:00,
2013-12-04 23:45:00,56.5,53.3,29.59,South,188,3.0,6.0,89,0.00,,,0.00,Wunderground v.1.15,2013-12-05 04:45:00,
2013-12-04 23:51:00,56.5,53.3,29.58,SSW,199,3.0,3.0,89,0.00,,,0.00,Wunderground v.1.15,2013-12-05 04:51:00,
2013-12-04 23:57:00,56.6,53.4,29.59,NW,326,3.0,10.0,89,0.00,,,0.00,Wunderground v.1.15,2013-12-05 04:57:00,